首页
METAR-TAF:

METAR-TAF

机场 :

赤塔機場

赤塔, 俄罗斯

纬度: 52-05N, 经度: 113-29E, 海拔: 685米

当前天气观测

该预报发布于27分钟前的17:30 UTC
风速4节,风向西
温度 12°C
湿度 94%
气压 1004 hPa
能见度10公里或以上

METAR: UIAA 231730Z AUTO 27002MPS 9999 NCD 12/11 Q1004 RMK QFE695/0926

时间: 02:57 (17:57 UTC)

预报

该预报发布于57分钟前的17:00 UTC
预报有效从23日的 18点(UTC)到 24日的 18点(UTC)
风速6节,风向西转西北,有时为16节阵风
能見度: 3100
多云层高于3000英尺, 积雨云.
小阵雨
短暂存在
从 23日的 18点(UTC)到 23日的 24点(UTC)
能見度: 0500
层高于100英尺

TAF: UIAA 231700Z 2318/2418 30003G08MPS 3100 -SHRA BKN030CB TEMPO 2318/2324 0500 FG VV001

超过4000个机场的气象观测和天气预报(METAR&TAF报告)。

可查询的气象台以黄色和红色小点在地图上表示。

将鼠标移到小点上方,可查看气象台名称。

然后点击查看天气观测和预报。

如需切换地图:点击带黑十字的绿色按钮放大地图;点击带横线的绿色按钮缩小地图;或者点击绿色箭头查看邻近地区的地图。


METAR-TAF: